sensor_id;sensor_type;location;lat;lon;timestamp;P1;durP1;ratioP1;P2;durP2;ratioP2
17947;SDS011;9099;47.958;11.366;2022-10-26T00:01:04;1.75;;;1.15;;
17947;SDS011;9099;47.958;11.366;2022-10-26T00:03:34;1.05;;;1.05;;
17947;SDS011;9099;47.958;11.366;2022-10-26T00:06:06;2.15;;;0.98;;
17947;SDS011;9099;47.958;11.366;2022-10-26T00:08:34;2.38;;;1.17;;
17947;SDS011;9099;47.958;11.366;2022-10-26T00:11:01;1.17;;;0.90;;
17947;SDS011;9099;47.958;11.366;2022-10-26T00:13:28;1.20;;;1.10;;
17947;SDS011;9099;47.958;11.366;2022-10-26T00:15:55;2.35;;;1.00;;
17947;SDS011;9099;47.958;11.366;2022-10-26T00:18:22;1.67;;;0.70;;
17947;SDS011;9099;47.958;11.366;2022-10-26T00:20:50;3.03;;;1.40;;
17947;SDS011;9099;47.958;11.366;2022-10-26T00:23:17;1.48;;;0.80;;
17947;SDS011;9099;47.958;11.366;2022-10-26T00:25:44;1.08;;;0.98;;
17947;SDS011;9099;47.958;11.366;2022-10-26T00:28:18;1.20;;;1.00;;
17947;SDS011;9099;47.958;11.366;2022-10-26T00:30:45;1.13;;;0.93;;
17947;SDS011;9099;47.958;11.366;2022-10-26T00:33:12;1.08;;;1.05;;
17947;SDS011;9099;47.958;11.366;2022-10-26T00:35:39;2.83;;;0.93;;
17947;SDS011;9099;47.958;11.366;2022-10-26T00:38:07;1.25;;;0.98;;
17947;SDS011;9099;47.958;11.366;2022-10-26T00:40:34;1.00;;;0.90;;
17947;SDS011;9099;47.958;11.366;2022-10-26T00:43:01;1.27;;;0.80;;
17947;SDS011;9099;47.958;11.366;2022-10-26T00:45:28;0.80;;;0.80;;
17947;SDS011;9099;47.958;11.366;2022-10-26T00:47:56;1.17;;;0.80;;
17947;SDS011;9099;47.958;11.366;2022-10-26T00:50:26;1.67;;;1.23;;
17947;SDS011;9099;47.958;11.366;2022-10-26T00:52:55;1.48;;;0.95;;
17947;SDS011;9099;47.958;11.366;2022-10-26T00:55:26;1.25;;;0.88;;
17947;SDS011;9099;47.958;11.366;2022-10-26T00:57:57;0.95;;;0.93;;
17947;SDS011;9099;47.958;11.366;2022-10-26T01:00:25;1.00;;;0.90;;
17947;SDS011;9099;47.958;11.366;2022-10-26T01:02:52;1.80;;;0.90;;
17947;SDS011;9099;47.958;11.366;2022-10-26T01:05:22;1.08;;;0.75;;
17947;SDS011;9099;47.958;11.366;2022-10-26T01:07:49;1.17;;;0.77;;
17947;SDS011;9099;47.958;11.366;2022-10-26T01:10:16;2.05;;;0.68;;
17947;SDS011;9099;47.958;11.366;2022-10-26T01:12:45;0.80;;;0.70;;
17947;SDS011;9099;47.958;11.366;2022-10-26T01:15:12;1.42;;;0.88;;
17947;SDS011;9099;47.958;11.366;2022-10-26T01:17:46;0.80;;;0.80;;
17947;SDS011;9099;47.958;11.366;2022-10-26T01:20:44;2.72;;;0.90;;
17947;SDS011;9099;47.958;11.366;2022-10-26T01:23:28;2.28;;;0.82;;
17947;SDS011;9099;47.958;11.366;2022-10-26T01:26:08;0.80;;;0.80;;
17947;SDS011;9099;47.958;11.366;2022-10-26T01:28:57;0.85;;;0.65;;
17947;SDS011;9099;47.958;11.366;2022-10-26T01:31:41;2.55;;;1.17;;
17947;SDS011;9099;47.958;11.366;2022-10-26T01:34:11;0.68;;;0.68;;
17947;SDS011;9099;47.958;11.366;2022-10-26T01:36:43;0.60;;;0.60;;
17947;SDS011;9099;47.958;11.366;2022-10-26T01:39:15;1.42;;;0.98;;
17947;SDS011;9099;47.958;11.366;2022-10-26T01:41:47;2.60;;;0.90;;
17947;SDS011;9099;47.958;11.366;2022-10-26T01:44:16;0.77;;;0.75;;
17947;SDS011;9099;47.958;11.366;2022-10-26T01:46:48;1.48;;;0.98;;
17947;SDS011;9099;47.958;11.366;2022-10-26T01:49:19;1.25;;;1.02;;
17947;SDS011;9099;47.958;11.366;2022-10-26T01:51:48;1.42;;;0.70;;
17947;SDS011;9099;47.958;11.366;2022-10-26T01:54:15;0.70;;;0.70;;
17947;SDS011;9099;47.958;11.366;2022-10-26T01:56:43;0.90;;;0.90;;
17947;SDS011;9099;47.958;11.366;2022-10-26T01:59:18;1.42;;;0.80;;
17947;SDS011;9099;47.958;11.366;2022-10-26T02:04:55;0.57;;;0.57;;
17947;SDS011;9099;47.958;11.366;2022-10-26T02:07:36;0.70;;;0.65;;
17947;SDS011;9099;47.958;11.366;2022-10-26T02:10:09;1.50;;;0.80;;
17947;SDS011;9099;47.958;11.366;2022-10-26T02:12:47;2.30;;;0.70;;
17947;SDS011;9099;47.958;11.366;2022-10-26T02:15:20;1.23;;;0.85;;
17947;SDS011;9099;47.958;11.366;2022-10-26T02:17:53;0.60;;;0.55;;
17947;SDS011;9099;47.958;11.366;2022-10-26T02:20:24;1.23;;;0.90;;
17947;SDS011;9099;47.958;11.366;2022-10-26T02:22:55;1.00;;;0.77;;
17947;SDS011;9099;47.958;11.366;2022-10-26T02:25:27;0.98;;;0.90;;
17947;SDS011;9099;47.958;11.366;2022-10-26T02:27:58;1.55;;;0.80;;
17947;SDS011;9099;47.958;11.366;2022-10-26T02:30:28;0.82;;;0.80;;
17947;SDS011;9099;47.958;11.366;2022-10-26T02:32:58;1.17;;;0.80;;
17947;SDS011;9099;47.958;11.366;2022-10-26T02:35:27;1.35;;;0.70;;
17947;SDS011;9099;47.958;11.366;2022-10-26T02:37:58;1.13;;;0.75;;
17947;SDS011;9099;47.958;11.366;2022-10-26T02:40:27;1.33;;;0.70;;
17947;SDS011;9099;47.958;11.366;2022-10-26T02:42:56;1.15;;;1.00;;
17947;SDS011;9099;47.958;11.366;2022-10-26T02:45:29;0.90;;;0.80;;
17947;SDS011;9099;47.958;11.366;2022-10-26T02:48:03;1.15;;;1.05;;
17947;SDS011;9099;47.958;11.366;2022-10-26T02:50:32;1.50;;;0.73;;
17947;SDS011;9099;47.958;11.366;2022-10-26T02:53:09;0.77;;;0.77;;
17947;SDS011;9099;47.958;11.366;2022-10-26T02:55:41;1.02;;;0.45;;
17947;SDS011;9099;47.958;11.366;2022-10-26T02:58:13;0.93;;;0.65;;
17947;SDS011;9099;47.958;11.366;2022-10-26T03:00:44;0.60;;;0.60;;
17947;SDS011;9099;47.958;11.366;2022-10-26T03:03:14;0.68;;;0.60;;
17947;SDS011;9099;47.958;11.366;2022-10-26T03:05:41;2.25;;;0.75;;
17947;SDS011;9099;47.958;11.366;2022-10-26T03:08:08;1.55;;;0.80;;
17947;SDS011;9099;47.958;11.366;2022-10-26T03:10:35;0.80;;;0.80;;
17947;SDS011;9099;47.958;11.366;2022-10-26T03:13:06;1.17;;;0.70;;
17947;SDS011;9099;47.958;11.366;2022-10-26T03:15:33;1.05;;;0.80;;
17947;SDS011;9099;47.958;11.366;2022-10-26T03:17:59;0.98;;;0.80;;
17947;SDS011;9099;47.958;11.366;2022-10-26T03:20:28;2.13;;;1.05;;
17947;SDS011;9099;47.958;11.366;2022-10-26T03:22:55;1.20;;;1.10;;
17947;SDS011;9099;47.958;11.366;2022-10-26T03:25:22;0.80;;;0.80;;
17947;SDS011;9099;47.958;11.366;2022-10-26T03:27:54;1.75;;;0.75;;
17947;SDS011;9099;47.958;11.366;2022-10-26T03:30:22;1.40;;;0.90;;
17947;SDS011;9099;47.958;11.366;2022-10-26T03:32:49;0.70;;;0.70;;
17947;SDS011;9099;47.958;11.366;2022-10-26T03:35:16;1.23;;;0.80;;
17947;SDS011;9099;47.958;11.366;2022-10-26T03:37:44;1.02;;;0.93;;
17947;SDS011;9099;47.958;11.366;2022-10-26T03:40:11;1.88;;;0.70;;
17947;SDS011;9099;47.958;11.366;2022-10-26T03:42:38;2.35;;;0.80;;
17947;SDS011;9099;47.958;11.366;2022-10-26T03:45:06;1.75;;;1.05;;
17947;SDS011;9099;47.958;11.366;2022-10-26T03:47:34;2.40;;;0.82;;
17947;SDS011;9099;47.958;11.366;2022-10-26T03:50:06;1.25;;;0.98;;
17947;SDS011;9099;47.958;11.366;2022-10-26T03:52:33;1.10;;;0.70;;
17947;SDS011;9099;47.958;11.366;2022-10-26T03:55:01;1.98;;;0.77;;
17947;SDS011;9099;47.958;11.366;2022-10-26T03:57:28;1.23;;;0.98;;
17947;SDS011;9099;47.958;11.366;2022-10-26T03:59:55;1.48;;;0.80;;
17947;SDS011;9099;47.958;11.366;2022-10-26T04:02:22;0.77;;;0.77;;
17947;SDS011;9099;47.958;11.366;2022-10-26T04:04:49;0.77;;;0.60;;
17947;SDS011;9099;47.958;11.366;2022-10-26T04:07:16;0.77;;;0.77;;
17947;SDS011;9099;47.958;11.366;2022-10-26T04:09:43;1.80;;;0.80;;
17947;SDS011;9099;47.958;11.366;2022-10-26T04:12:11;1.27;;;0.77;;
17947;SDS011;9099;47.958;11.366;2022-10-26T04:14:38;0.63;;;0.60;;
17947;SDS011;9099;47.958;11.366;2022-10-26T04:17:05;0.82;;;0.82;;
17947;SDS011;9099;47.958;11.366;2022-10-26T04:19:31;0.90;;;0.60;;
17947;SDS011;9099;47.958;11.366;2022-10-26T04:21:58;0.60;;;0.60;;
17947;SDS011;9099;47.958;11.366;2022-10-26T04:24:25;1.15;;;0.90;;
17947;SDS011;9099;47.958;11.366;2022-10-26T04:26:52;0.60;;;0.60;;
17947;SDS011;9099;47.958;11.366;2022-10-26T04:29:20;1.17;;;0.88;;
17947;SDS011;9099;47.958;11.366;2022-10-26T04:31:47;0.80;;;0.80;;
17947;SDS011;9099;47.958;11.366;2022-10-26T04:34:14;0.80;;;0.80;;
17947;SDS011;9099;47.958;11.366;2022-10-26T04:36:40;0.70;;;0.70;;
17947;SDS011;9099;47.958;11.366;2022-10-26T04:39:07;0.95;;;0.70;;
17947;SDS011;9099;47.958;11.366;2022-10-26T04:41:34;1.95;;;1.02;;
17947;SDS011;9099;47.958;11.366;2022-10-26T04:44:01;0.93;;;0.80;;
17947;SDS011;9099;47.958;11.366;2022-10-26T04:46:29;1.67;;;1.52;;
17947;SDS011;9099;47.958;11.366;2022-10-26T04:48:56;4.00;;;2.25;;
17947;SDS011;9099;47.958;11.366;2022-10-26T04:51:22;1.33;;;1.10;;
17947;SDS011;9099;47.958;11.366;2022-10-26T04:53:50;1.30;;;1.20;;
17947;SDS011;9099;47.958;11.366;2022-10-26T04:56:18;4.00;;;3.67;;
17947;SDS011;9099;47.958;11.366;2022-10-26T04:58:45;4.13;;;2.45;;
17947;SDS011;9099;47.958;11.366;2022-10-26T05:01:12;2.25;;;2.05;;
17947;SDS011;9099;47.958;11.366;2022-10-26T05:03:40;5.68;;;4.68;;
17947;SDS011;9099;47.958;11.366;2022-10-26T05:06:07;5.35;;;4.50;;
17947;SDS011;9099;47.958;11.366;2022-10-26T05:08:34;3.03;;;2.83;;
17947;SDS011;9099;47.958;11.366;2022-10-26T05:11:01;2.05;;;1.83;;
17947;SDS011;9099;47.958;11.366;2022-10-26T05:13:27;1.15;;;1.00;;
17947;SDS011;9099;47.958;11.366;2022-10-26T05:15:54;3.00;;;1.17;;
17947;SDS011;9099;47.958;11.366;2022-10-26T05:18:21;1.00;;;1.00;;
17947;SDS011;9099;47.958;11.366;2022-10-26T05:20:50;1.00;;;0.90;;
17947;SDS011;9099;47.958;11.366;2022-10-26T05:23:18;1.30;;;1.20;;
17947;SDS011;9099;47.958;11.366;2022-10-26T05:25:44;1.38;;;0.80;;
17947;SDS011;9099;47.958;11.366;2022-10-26T05:28:12;0.82;;;0.80;;
17947;SDS011;9099;47.958;11.366;2022-10-26T05:30:39;1.00;;;0.80;;
17947;SDS011;9099;47.958;11.366;2022-10-26T05:33:07;1.13;;;0.70;;
17947;SDS011;9099;47.958;11.366;2022-10-26T05:35:35;1.42;;;0.82;;
17947;SDS011;9099;47.958;11.366;2022-10-26T05:38:06;1.13;;;1.10;;
17947;SDS011;9099;47.958;11.366;2022-10-26T05:40:34;1.00;;;0.90;;
17947;SDS011;9099;47.958;11.366;2022-10-26T05:43:01;2.10;;;0.98;;
17947;SDS011;9099;47.958;11.366;2022-10-26T05:45:28;1.10;;;0.90;;
17947;SDS011;9099;47.958;11.366;2022-10-26T05:47:55;1.58;;;0.80;;
17947;SDS011;9099;47.958;11.366;2022-10-26T05:50:22;1.10;;;0.90;;
17947;SDS011;9099;47.958;11.366;2022-10-26T05:52:49;2.30;;;0.95;;
17947;SDS011;9099;47.958;11.366;2022-10-26T05:55:18;1.45;;;0.95;;
17947;SDS011;9099;47.958;11.366;2022-10-26T05:57:45;1.08;;;0.82;;
17947;SDS011;9099;47.958;11.366;2022-10-26T06:00:14;1.30;;;0.88;;
17947;SDS011;9099;47.958;11.366;2022-10-26T06:02:45;0.88;;;0.70;;
17947;SDS011;9099;47.958;11.366;2022-10-26T06:05:25;1.75;;;0.90;;
17947;SDS011;9099;47.958;11.366;2022-10-26T06:07:53;0.60;;;0.60;;
17947;SDS011;9099;47.958;11.366;2022-10-26T06:10:22;1.33;;;1.10;;
17947;SDS011;9099;47.958;11.366;2022-10-26T06:12:50;3.25;;;0.90;;
17947;SDS011;9099;47.958;11.366;2022-10-26T06:15:18;0.82;;;0.82;;
17947;SDS011;9099;47.958;11.366;2022-10-26T06:17:48;1.63;;;1.10;;
17947;SDS011;9099;47.958;11.366;2022-10-26T06:20:27;0.85;;;0.60;;
17947;SDS011;9099;47.958;11.366;2022-10-26T06:23:08;0.65;;;0.65;;
17947;SDS011;9099;47.958;11.366;2022-10-26T06:25:53;0.65;;;0.60;;
17947;SDS011;9099;47.958;11.366;2022-10-26T06:28:29;2.42;;;1.30;;
17947;SDS011;9099;47.958;11.366;2022-10-26T06:31:07;3.75;;;1.50;;
17947;SDS011;9099;47.958;11.366;2022-10-26T06:33:34;1.23;;;0.90;;
17947;SDS011;9099;47.958;11.366;2022-10-26T06:36:03;0.98;;;0.90;;
17947;SDS011;9099;47.958;11.366;2022-10-26T06:38:41;1.85;;;1.05;;
17947;SDS011;9099;47.958;11.366;2022-10-26T06:41:11;0.90;;;0.90;;
17947;SDS011;9099;47.958;11.366;2022-10-26T06:43:43;3.88;;;0.80;;
17947;SDS011;9099;47.958;11.366;2022-10-26T06:46:12;1.75;;;0.80;;
17947;SDS011;9099;47.958;11.366;2022-10-26T06:48:49;1.75;;;0.75;;
17947;SDS011;9099;47.958;11.366;2022-10-26T06:51:20;1.45;;;0.77;;
17947;SDS011;9099;47.958;11.366;2022-10-26T06:53:51;2.17;;;0.85;;
17947;SDS011;9099;47.958;11.366;2022-10-26T06:56:26;0.82;;;0.77;;
17947;SDS011;9099;47.958;11.366;2022-10-26T06:58:54;0.82;;;0.80;;
17947;SDS011;9099;47.958;11.366;2022-10-26T07:01:26;1.13;;;0.80;;
17947;SDS011;9099;47.958;11.366;2022-10-26T07:03:52;2.33;;;0.82;;
17947;SDS011;9099;47.958;11.366;2022-10-26T07:06:19;0.77;;;0.70;;
17947;SDS011;9099;47.958;11.366;2022-10-26T07:08:46;1.15;;;0.60;;
17947;SDS011;9099;47.958;11.366;2022-10-26T07:11:13;0.98;;;0.70;;
17947;SDS011;9099;47.958;11.366;2022-10-26T07:13:41;0.60;;;0.60;;
17947;SDS011;9099;47.958;11.366;2022-10-26T07:16:08;1.90;;;1.00;;
17947;SDS011;9099;47.958;11.366;2022-10-26T07:18:34;0.90;;;0.90;;
17947;SDS011;9099;47.958;11.366;2022-10-26T07:21:01;1.60;;;0.82;;
17947;SDS011;9099;47.958;11.366;2022-10-26T07:23:28;0.63;;;0.63;;
17947;SDS011;9099;47.958;11.366;2022-10-26T07:25:55;1.50;;;0.80;;
17947;SDS011;9099;47.958;11.366;2022-10-26T07:28:24;1.70;;;0.73;;
17947;SDS011;9099;47.958;11.366;2022-10-26T07:30:52;2.25;;;1.10;;
17947;SDS011;9099;47.958;11.366;2022-10-26T07:33:19;1.38;;;1.00;;
17947;SDS011;9099;47.958;11.366;2022-10-26T07:35:46;1.88;;;0.93;;
17947;SDS011;9099;47.958;11.366;2022-10-26T07:38:13;2.08;;;1.35;;
17947;SDS011;9099;47.958;11.366;2022-10-26T07:40:39;1.67;;;1.05;;
17947;SDS011;9099;47.958;11.366;2022-10-26T07:43:06;1.40;;;0.93;;
17947;SDS011;9099;47.958;11.366;2022-10-26T07:45:33;0.90;;;0.90;;
17947;SDS011;9099;47.958;11.366;2022-10-26T07:48:02;1.35;;;1.20;;
17947;SDS011;9099;47.958;11.366;2022-10-26T07:50:29;1.13;;;1.05;;
17947;SDS011;9099;47.958;11.366;2022-10-26T07:52:57;2.13;;;1.40;;
17947;SDS011;9099;47.958;11.366;2022-10-26T07:55:24;2.15;;;1.40;;
17947;SDS011;9099;47.958;11.366;2022-10-26T07:57:53;1.40;;;1.30;;
17947;SDS011;9099;47.958;11.366;2022-10-26T08:00:20;1.50;;;1.40;;
17947;SDS011;9099;47.958;11.366;2022-10-26T08:02:47;1.40;;;1.30;;
17947;SDS011;9099;47.958;11.366;2022-10-26T08:05:15;1.20;;;1.10;;
17947;SDS011;9099;47.958;11.366;2022-10-26T08:07:42;1.65;;;1.00;;
17947;SDS011;9099;47.958;11.366;2022-10-26T08:10:09;1.48;;;1.10;;
17947;SDS011;9099;47.958;11.366;2022-10-26T08:12:37;1.27;;;0.90;;
17947;SDS011;9099;47.958;11.366;2022-10-26T08:15:04;1.40;;;0.90;;
17947;SDS011;9099;47.958;11.366;2022-10-26T08:17:32;1.17;;;1.00;;
17947;SDS011;9099;47.958;11.366;2022-10-26T08:19:58;1.35;;;1.10;;
17947;SDS011;9099;47.958;11.366;2022-10-26T08:22:28;1.25;;;0.95;;
17947;SDS011;9099;47.958;11.366;2022-10-26T08:24:55;0.90;;;0.90;;
17947;SDS011;9099;47.958;11.366;2022-10-26T08:27:22;3.30;;;1.33;;
17947;SDS011;9099;47.958;11.366;2022-10-26T08:29:49;2.20;;;2.08;;
17947;SDS011;9099;47.958;11.366;2022-10-26T08:32:15;2.03;;;1.80;;
17947;SDS011;9099;47.958;11.366;2022-10-26T08:34:42;2.00;;;1.33;;
17947;SDS011;9099;47.958;11.366;2022-10-26T08:37:09;2.22;;;1.70;;
17947;SDS011;9099;47.958;11.366;2022-10-26T08:39:37;2.95;;;1.80;;
17947;SDS011;9099;47.958;11.366;2022-10-26T08:42:05;2.38;;;1.30;;
17947;SDS011;9099;47.958;11.366;2022-10-26T08:44:38;1.92;;;1.33;;
17947;SDS011;9099;47.958;11.366;2022-10-26T08:47:10;1.55;;;1.27;;
17947;SDS011;9099;47.958;11.366;2022-10-26T08:49:44;1.17;;;1.00;;
17947;SDS011;9099;47.958;11.366;2022-10-26T08:52:18;1.10;;;0.88;;
17947;SDS011;9099;47.958;11.366;2022-10-26T08:54:52;0.88;;;0.68;;
17947;SDS011;9099;47.958;11.366;2022-10-26T08:57:23;1.42;;;0.73;;
17947;SDS011;9099;47.958;11.366;2022-10-26T08:59:56;1.50;;;0.90;;
17947;SDS011;9099;47.958;11.366;2022-10-26T09:02:26;1.00;;;0.90;;
17947;SDS011;9099;47.958;11.366;2022-10-26T09:04:53;1.30;;;0.90;;
17947;SDS011;9099;47.958;11.366;2022-10-26T09:07:27;1.48;;;1.10;;
17947;SDS011;9099;47.958;11.366;2022-10-26T09:10:18;0.98;;;0.80;;
17947;SDS011;9099;47.958;11.366;2022-10-26T09:12:59;2.08;;;0.93;;
17947;SDS011;9099;47.958;11.366;2022-10-26T09:15:47;3.22;;;1.20;;
17947;SDS011;9099;47.958;11.366;2022-10-26T09:18:25;1.77;;;0.80;;
17947;SDS011;9099;47.958;11.366;2022-10-26T09:21:11;1.33;;;0.98;;
17947;SDS011;9099;47.958;11.366;2022-10-26T09:24:00;0.93;;;0.90;;
17947;SDS011;9099;47.958;11.366;2022-10-26T09:26:36;1.73;;;1.00;;
17947;SDS011;9099;47.958;11.366;2022-10-26T09:29:09;1.25;;;0.93;;
17947;SDS011;9099;47.958;11.366;2022-10-26T09:31:39;2.15;;;0.80;;
17947;SDS011;9099;47.958;11.366;2022-10-26T09:34:11;1.00;;;0.95;;
17947;SDS011;9099;47.958;11.366;2022-10-26T09:36:44;1.33;;;0.73;;
17947;SDS011;9099;47.958;11.366;2022-10-26T09:39:12;1.77;;;0.90;;
17947;SDS011;9099;47.958;11.366;2022-10-26T09:41:46;1.33;;;0.90;;
17947;SDS011;9099;47.958;11.366;2022-10-26T09:44:18;1.13;;;1.00;;
17947;SDS011;9099;47.958;11.366;2022-10-26T09:46:52;1.15;;;0.90;;
17947;SDS011;9099;47.958;11.366;2022-10-26T09:49:24;0.82;;;0.82;;
17947;SDS011;9099;47.958;11.366;2022-10-26T09:51:57;1.83;;;1.10;;
17947;SDS011;9099;47.958;11.366;2022-10-26T09:54:24;0.70;;;0.70;;
17947;SDS011;9099;47.958;11.366;2022-10-26T09:56:54;2.28;;;0.80;;
17947;SDS011;9099;47.958;11.366;2022-10-26T09:59:23;2.17;;;1.10;;
17947;SDS011;9099;47.958;11.366;2022-10-26T10:01:51;1.17;;;1.00;;
17947;SDS011;9099;47.958;11.366;2022-10-26T10:04:18;0.80;;;0.80;;
17947;SDS011;9099;47.958;11.366;2022-10-26T10:06:48;2.03;;;0.88;;
17947;SDS011;9099;47.958;11.366;2022-10-26T10:09:16;2.58;;;0.90;;
17947;SDS011;9099;47.958;11.366;2022-10-26T10:11:46;2.15;;;0.82;;
17947;SDS011;9099;47.958;11.366;2022-10-26T10:14:20;2.22;;;1.00;;
17947;SDS011;9099;47.958;11.366;2022-10-26T10:16:49;1.38;;;0.90;;
17947;SDS011;9099;47.958;11.366;2022-10-26T10:19:25;1.90;;;0.80;;
17947;SDS011;9099;47.958;11.366;2022-10-26T10:21:54;1.50;;;1.00;;
17947;SDS011;9099;47.958;11.366;2022-10-26T10:24:24;2.85;;;1.00;;
17947;SDS011;9099;47.958;11.366;2022-10-26T10:26:57;2.92;;;1.17;;
17947;SDS011;9099;47.958;11.366;2022-10-26T10:29:27;2.05;;;0.80;;
17947;SDS011;9099;47.958;11.366;2022-10-26T10:31:55;2.33;;;1.25;;
17947;SDS011;9099;47.958;11.366;2022-10-26T10:34:23;1.65;;;1.08;;
17947;SDS011;9099;47.958;11.366;2022-10-26T10:36:50;1.90;;;1.08;;
17947;SDS011;9099;47.958;11.366;2022-10-26T10:39:35;3.13;;;1.33;;
17947;SDS011;9099;47.958;11.366;2022-10-26T10:42:05;3.28;;;1.25;;
17947;SDS011;9099;47.958;11.366;2022-10-26T10:44:40;2.60;;;0.93;;
17947;SDS011;9099;47.958;11.366;2022-10-26T10:47:15;1.05;;;0.82;;
17947;SDS011;9099;47.958;11.366;2022-10-26T10:49:49;2.13;;;1.20;;
17947;SDS011;9099;47.958;11.366;2022-10-26T10:52:23;2.30;;;1.33;;
17947;SDS011;9099;47.958;11.366;2022-10-26T10:54:54;1.35;;;1.00;;
17947;SDS011;9099;47.958;11.366;2022-10-26T10:57:34;3.00;;;1.23;;
17947;SDS011;9099;47.958;11.366;2022-10-26T11:00:12;2.30;;;1.17;;
17947;SDS011;9099;47.958;11.366;2022-10-26T11:02:48;3.22;;;1.20;;
17947;SDS011;9099;47.958;11.366;2022-10-26T11:05:35;2.25;;;1.30;;
17947;SDS011;9099;47.958;11.366;2022-10-26T11:08:14;2.90;;;1.35;;
17947;SDS011;9099;47.958;11.366;2022-10-26T11:10:48;2.25;;;1.08;;
17947;SDS011;9099;47.958;11.366;2022-10-26T11:13:19;5.05;;;1.50;;
17947;SDS011;9099;47.958;11.366;2022-10-26T11:16:02;3.90;;;1.40;;
17947;SDS011;9099;47.958;11.366;2022-10-26T11:18:33;2.15;;;1.23;;
17947;SDS011;9099;47.958;11.366;2022-10-26T11:21:03;4.25;;;1.67;;
17947;SDS011;9099;47.958;11.366;2022-10-26T11:23:43;2.25;;;1.42;;
17947;SDS011;9099;47.958;11.366;2022-10-26T11:26:14;3.22;;;1.40;;
17947;SDS011;9099;47.958;11.366;2022-10-26T11:28:48;2.42;;;1.23;;
17947;SDS011;9099;47.958;11.366;2022-10-26T11:31:22;5.25;;;1.33;;
17947;SDS011;9099;47.958;11.366;2022-10-26T11:34:00;3.03;;;1.30;;
17947;SDS011;9099;47.958;11.366;2022-10-26T11:36:42;3.03;;;1.20;;
17947;SDS011;9099;47.958;11.366;2022-10-26T11:39:15;4.97;;;1.75;;
17947;SDS011;9099;47.958;11.366;2022-10-26T11:41:48;4.88;;;1.65;;
17947;SDS011;9099;47.958;11.366;2022-10-26T11:44:21;3.55;;;1.60;;
17947;SDS011;9099;47.958;11.366;2022-10-26T11:46:55;5.63;;;1.67;;
17947;SDS011;9099;47.958;11.366;2022-10-26T11:49:27;4.20;;;1.50;;
17947;SDS011;9099;47.958;11.366;2022-10-26T11:52:00;3.50;;;1.38;;
17947;SDS011;9099;47.958;11.366;2022-10-26T11:54:35;9.65;;;1.50;;
17947;SDS011;9099;47.958;11.366;2022-10-26T11:57:05;2.08;;;1.40;;
17947;SDS011;9099;47.958;11.366;2022-10-26T11:59:34;4.03;;;1.58;;
17947;SDS011;9099;47.958;11.366;2022-10-26T12:02:09;2.80;;;1.55;;
17947;SDS011;9099;47.958;11.366;2022-10-26T12:04:40;3.22;;;1.38;;
17947;SDS011;9099;47.958;11.366;2022-10-26T12:07:12;3.90;;;1.40;;
17947;SDS011;9099;47.958;11.366;2022-10-26T12:09:46;3.00;;;1.45;;
17947;SDS011;9099;47.958;11.366;2022-10-26T12:12:15;4.03;;;1.40;;
17947;SDS011;9099;47.958;11.366;2022-10-26T12:14:48;3.35;;;1.50;;
17947;SDS011;9099;47.958;11.366;2022-10-26T12:17:24;3.97;;;1.52;;
17947;SDS011;9099;47.958;11.366;2022-10-26T12:19:56;3.10;;;1.10;;
17947;SDS011;9099;47.958;11.366;2022-10-26T12:22:30;3.47;;;1.20;;
17947;SDS011;9099;47.958;11.366;2022-10-26T12:25:06;3.00;;;1.60;;
17947;SDS011;9099;47.958;11.366;2022-10-26T12:27:53;2.33;;;1.45;;
17947;SDS011;9099;47.958;11.366;2022-10-26T12:30:26;4.40;;;1.50;;
17947;SDS011;9099;47.958;11.366;2022-10-26T12:32:56;1.92;;;1.50;;
17947;SDS011;9099;47.958;11.366;2022-10-26T12:41:18;2.83;;;1.42;;
17947;SDS011;9099;47.958;11.366;2022-10-26T12:43:55;5.00;;;1.50;;
17947;SDS011;9099;47.958;11.366;2022-10-26T12:55:23;2.35;;;1.50;;
17947;SDS011;9099;47.958;11.366;2022-10-26T13:01:33;5.22;;;1.60;;
17947;SDS011;9099;47.958;11.366;2022-10-26T13:04:36;4.95;;;2.30;;
17947;SDS011;9099;47.958;11.366;2022-10-26T13:07:16;4.07;;;1.50;;
17947;SDS011;9099;47.958;11.366;2022-10-26T13:09:54;7.85;;;2.03;;
17947;SDS011;9099;47.958;11.366;2022-10-26T13:12:25;6.03;;;1.60;;
17947;SDS011;9099;47.958;11.366;2022-10-26T13:15:00;3.92;;;1.50;;
17947;SDS011;9099;47.958;11.366;2022-10-26T13:17:31;4.13;;;1.75;;
17947;SDS011;9099;47.958;11.366;2022-10-26T13:19:59;3.95;;;1.45;;
17947;SDS011;9099;47.958;11.366;2022-10-26T13:22:27;4.75;;;1.98;;
17947;SDS011;9099;47.958;11.366;2022-10-26T13:24:56;4.88;;;1.73;;
17947;SDS011;9099;47.958;11.366;2022-10-26T13:27:41;3.42;;;1.45;;
17947;SDS011;9099;47.958;11.366;2022-10-26T13:30:17;4.40;;;1.77;;
17947;SDS011;9099;47.958;11.366;2022-10-26T13:33:05;5.07;;;1.55;;
17947;SDS011;9099;47.958;11.366;2022-10-26T13:35:38;2.50;;;1.45;;
17947;SDS011;9099;47.958;11.366;2022-10-26T13:38:07;3.90;;;1.30;;
17947;SDS011;9099;47.958;11.366;2022-10-26T13:40:37;3.63;;;1.50;;
17947;SDS011;9099;47.958;11.366;2022-10-26T13:43:05;2.47;;;1.35;;
17947;SDS011;9099;47.958;11.366;2022-10-26T13:45:40;4.18;;;1.45;;
17947;SDS011;9099;47.958;11.366;2022-10-26T13:48:15;2.45;;;1.50;;
17947;SDS011;9099;47.958;11.366;2022-10-26T13:50:46;3.30;;;1.40;;
17947;SDS011;9099;47.958;11.366;2022-10-26T13:53:15;2.15;;;1.38;;
17947;SDS011;9099;47.958;11.366;2022-10-26T13:55:49;3.92;;;1.50;;
17947;SDS011;9099;47.958;11.366;2022-10-26T13:58:19;4.72;;;1.58;;
17947;SDS011;9099;47.958;11.366;2022-10-26T14:01:03;2.35;;;1.20;;
17947;SDS011;9099;47.958;11.366;2022-10-26T14:03:38;4.43;;;1.70;;
17947;SDS011;9099;47.958;11.366;2022-10-26T14:06:07;3.88;;;1.30;;
17947;SDS011;9099;47.958;11.366;2022-10-26T14:08:40;2.38;;;1.70;;
17947;SDS011;9099;47.958;11.366;2022-10-26T14:11:11;4.80;;;1.70;;
17947;SDS011;9099;47.958;11.366;2022-10-26T14:13:40;4.03;;;1.35;;
17947;SDS011;9099;47.958;11.366;2022-10-26T14:16:07;2.75;;;1.30;;
17947;SDS011;9099;47.958;11.366;2022-10-26T14:18:35;3.95;;;1.50;;
17947;SDS011;9099;47.958;11.366;2022-10-26T14:21:03;2.58;;;1.40;;
17947;SDS011;9099;47.958;11.366;2022-10-26T14:23:32;2.85;;;1.45;;
17947;SDS011;9099;47.958;11.366;2022-10-26T14:26:00;3.70;;;1.33;;
17947;SDS011;9099;47.958;11.366;2022-10-26T14:28:29;5.03;;;1.50;;
17947;SDS011;9099;47.958;11.366;2022-10-26T14:31:10;2.28;;;1.30;;
17947;SDS011;9099;47.958;11.366;2022-10-26T14:33:38;5.00;;;1.75;;
17947;SDS011;9099;47.958;11.366;2022-10-26T14:36:05;5.15;;;1.75;;
17947;SDS011;9099;47.958;11.366;2022-10-26T14:38:35;3.10;;;1.40;;
17947;SDS011;9099;47.958;11.366;2022-10-26T14:41:08;4.05;;;1.40;;
17947;SDS011;9099;47.958;11.366;2022-10-26T14:43:37;4.57;;;1.40;;
17947;SDS011;9099;47.958;11.366;2022-10-26T14:46:04;4.50;;;1.55;;
17947;SDS011;9099;47.958;11.366;2022-10-26T14:48:32;6.57;;;1.80;;
17947;SDS011;9099;47.958;11.366;2022-10-26T14:51:01;3.53;;;1.50;;
17947;SDS011;9099;47.958;11.366;2022-10-26T14:53:34;3.75;;;1.42;;
17947;SDS011;9099;47.958;11.366;2022-10-26T14:56:03;3.85;;;1.38;;
17947;SDS011;9099;47.958;11.366;2022-10-26T14:58:45;3.63;;;1.50;;
17947;SDS011;9099;47.958;11.366;2022-10-26T15:01:15;2.80;;;1.77;;
17947;SDS011;9099;47.958;11.366;2022-10-26T15:03:54;3.28;;;1.60;;
17947;SDS011;9099;47.958;11.366;2022-10-26T15:06:32;3.55;;;1.60;;
17947;SDS011;9099;47.958;11.366;2022-10-26T15:09:03;1.65;;;1.55;;
17947;SDS011;9099;47.958;11.366;2022-10-26T15:11:31;4.20;;;1.90;;
17947;SDS011;9099;47.958;11.366;2022-10-26T15:14:00;3.35;;;1.55;;
17947;SDS011;9099;47.958;11.366;2022-10-26T15:16:28;3.45;;;1.63;;
17947;SDS011;9099;47.958;11.366;2022-10-26T15:18:58;4.90;;;2.15;;
17947;SDS011;9099;47.958;11.366;2022-10-26T15:21:33;4.28;;;1.60;;
17947;SDS011;9099;47.958;11.366;2022-10-26T15:24:22;4.40;;;1.73;;
17947;SDS011;9099;47.958;11.366;2022-10-26T15:26:55;3.55;;;1.83;;
17947;SDS011;9099;47.958;11.366;2022-10-26T15:29:37;2.92;;;1.40;;
17947;SDS011;9099;47.958;11.366;2022-10-26T15:32:18;3.50;;;1.40;;